80AR weather

Price Field
Joiner, Arkansas, United States

Public forecast

Using degrees Fahrenheit for public forecast. Weather courtesy of forecast.io.

Closest aviation weather report (METAR) to Price Field

Closest report is Millington-Memphis Airport, 20.8 nm (38.6 km) ESE. Retrieved 2019/10/22 09:35 UTC (9 minutes ago):

KNQA 220935Z AUTO 00000KT 10SM CLR 08/07 A2994 RMK A01

Closest aviation forecast (TAF) to Price Field

Closest forecast is Jonesboro Municipal Airport, 27.5 nm (50.9 km) NW. Retrieved 2019/10/22 06:22 UTC (3 hours ago):

TAF KJBR 220520Z 2206/2306 23008KT P6SM SKC FM221700 27015G20KT P6SM SKC FM230000 23004KT P6SM SKC